Time,TemperatureF,DewpointF,PressureIn,WindDirection,WindDirectionDegrees,WindSpeedMPH,WindSpeedGustMPH,Humidity,HourlyPrecipIn,Conditions,Clouds,dailyrainin,SoftwareType,DateUTC
2013-01-16 00:00:00,24.2,18.0,29.69,South,179,0.0,0.0,77,0.00,,---,0.00,VWS V13.01,2013-01-16 05:00:00,
2013-01-16 00:30:00,24.3,18.1,29.67,South,179,0.0,0.0,77,0.00,,---,0.00,VWS V13.01,2013-01-16 05:30:00,
2013-01-16 01:00:00,24.0,17.9,29.65,South,179,0.0,0.0,77,0.00,,---,0.00,VWS V13.01,2013-01-16 06:00:00,
2013-01-16 01:30:00,23.7,17.6,29.64,South,177,0.0,0.0,77,0.00,,---,0.00,VWS V13.01,2013-01-16 06:30:00,
2013-01-16 02:00:00,23.0,17.2,29.63,South,177,0.0,0.0,78,0.00,,---,0.00,VWS V13.01,2013-01-16 07:00:00,
2013-01-16 02:30:00,22.2,16.7,29.62,South,177,0.0,0.0,79,0.00,,---,0.00,VWS V13.01,2013-01-16 07:30:00,
2013-01-16 03:00:00,21.8,16.6,29.61,South,177,0.0,0.0,80,0.00,,---,0.00,VWS V13.01,2013-01-16 08:00:00,
2013-01-16 03:30:00,21.6,16.4,29.60,South,177,0.0,0.0,80,0.00,,---,0.00,VWS V13.01,2013-01-16 08:30:00,
2013-01-16 04:00:00,21.1,16.2,29.59,South,177,0.0,0.0,81,0.00,,---,0.00,VWS V13.01,2013-01-16 09:00:00,
2013-01-16 04:30:00,21.2,16.3,29.58,South,177,0.0,0.0,81,0.00,,---,0.00,VWS V13.01,2013-01-16 09:30:00,
2013-01-16 05:00:00,21.6,16.7,29.56,South,170,0.0,0.0,81,0.00,,---,0.00,VWS V13.01,2013-01-16 10:00:00,
2013-01-16 05:30:00,22.7,17.8,29.55,South,186,0.0,0.0,81,0.00,,---,0.00,VWS V13.01,2013-01-16 10:30:00,
2013-01-16 06:00:00,23.0,17.8,29.54,SW,220,0.0,1.0,80,0.00,,---,0.00,VWS V13.01,2013-01-16 11:00:00,
2013-01-16 06:30:00,23.0,17.8,29.52,SSE,148,0.0,4.0,80,0.00,,---,0.00,VWS V13.01,2013-01-16 11:30:00,
2013-01-16 07:00:00,22.8,17.6,29.52,SSW,193,0.0,0.0,80,0.00,,---,0.00,VWS V13.01,2013-01-16 12:00:00,
2013-01-16 07:30:00,22.5,17.6,29.50,South,176,0.0,1.0,81,0.00,,---,0.00,VWS V13.01,2013-01-16 12:30:00,
2013-01-16 08:00:00,22.5,17.6,29.49,South,186,0.0,0.0,81,0.00,,---,0.00,VWS V13.01,2013-01-16 13:00:00,
2013-01-16 08:30:00,22.6,17.9,29.49,SSW,200,0.0,0.0,82,0.00,,---,0.00,VWS V13.01,2013-01-16 13:30:00,
2013-01-16 09:00:00,23.4,18.7,29.49,South,181,0.0,0.0,82,0.00,,---,0.00,VWS V13.01,2013-01-16 14:00:00,
2013-01-16 09:30:00,24.9,19.9,29.49,South,183,0.0,5.0,81,0.00,,---,0.00,VWS V13.01,2013-01-16 14:30:00,
2013-01-16 10:00:00,26.6,21.3,29.48,SW,223,0.0,6.0,80,0.00,,---,0.00,VWS V13.01,2013-01-16 15:00:00,
2013-01-16 10:30:00,28.6,22.3,29.45,SSW,193,0.0,8.0,77,0.00,,---,0.00,VWS V13.01,2013-01-16 15:30:00,
2013-01-16 11:00:00,32.0,24.0,29.44,West,273,0.0,8.0,72,0.00,,---,0.00,VWS V13.01,2013-01-16 16:00:00,
2013-01-16 11:30:00,35.1,24.5,29.42,SW,227,3.0,11.0,65,0.00,,---,0.00,VWS V13.01,2013-01-16 16:30:00,
2013-01-16 12:00:00,35.6,22.7,29.41,SSE,168,5.0,13.0,59,0.00,,---,0.00,VWS V13.01,2013-01-16 17:00:00,
2013-01-16 12:30:00,36.0,23.1,29.40,SW,224,6.0,15.0,59,0.00,,---,0.00,VWS V13.01,2013-01-16 17:30:00,
2013-01-16 13:00:00,36.1,23.2,29.38,West,268,7.0,15.0,59,0.00,,---,0.00,VWS V13.01,2013-01-16 18:00:00,
2013-01-16 13:30:00,35.8,22.9,29.38,WSW,244,6.0,13.0,59,0.00,,---,0.00,VWS V13.01,2013-01-16 18:30:00,
2013-01-16 14:00:00,36.4,24.2,29.35,South,174,10.0,14.0,61,0.00,,---,0.00,VWS V13.01,2013-01-16 19:00:00,
2013-01-16 14:30:00,34.1,22.8,29.35,SSW,207,2.0,18.0,63,0.00,,---,0.00,VWS V13.01,2013-01-16 19:30:00,
2013-01-16 15:00:00,33.2,23.1,29.36,SSE,166,1.0,15.0,66,0.00,,---,0.00,VWS V13.01,2013-01-16 20:00:00,
2013-01-16 15:30:00,33.0,23.2,29.35,SSW,204,2.0,14.0,67,0.00,,---,0.00,VWS V13.01,2013-01-16 20:30:00,
2013-01-16 16:00:00,33.5,23.7,29.37,WSW,241,0.0,10.0,67,0.00,,---,0.00,VWS V13.01,2013-01-16 21:00:00,
2013-01-16 16:30:00,33.4,25.0,29.38,West,265,0.0,11.0,71,0.00,,---,0.00,VWS V13.01,2013-01-16 21:30:00,
2013-01-16 17:00:00,33.6,26.2,29.39,SW,218,0.0,12.0,74,0.00,,---,0.00,VWS V13.01,2013-01-16 22:00:00,
2013-01-16 17:30:00,33.7,27.6,29.39,WSW,258,3.0,13.0,78,0.00,,---,0.00,VWS V13.01,2013-01-16 22:30:00,
2013-01-16 18:00:00,33.2,29.5,29.42,WNW,283,0.0,7.0,86,0.00,,---,0.00,VWS V13.01,2013-01-16 23:00:00,
2013-01-16 18:30:00,33.4,30.2,29.42,SSW,196,0.0,0.0,88,0.00,,---,0.00,VWS V13.01,2013-01-16 23:30:00,
2013-01-16 19:00:00,34.1,28.9,29.44,WNW,283,0.0,8.0,81,0.00,,---,0.00,VWS V13.01,2013-01-17 00:00:00,
2013-01-16 19:30:00,34.4,28.6,29.45,WNW,294,0.0,7.0,79,0.00,,---,0.00,VWS V13.01,2013-01-17 00:30:00,
2013-01-16 20:00:00,34.4,28.6,29.45,West,275,0.0,7.0,79,0.00,,---,0.00,VWS V13.01,2013-01-17 01:00:00,
2013-01-16 20:30:00,34.5,28.7,29.47,WNW,283,0.0,4.0,79,0.00,,---,0.00,VWS V13.01,2013-01-17 01:30:00,
2013-01-16 21:00:00,34.6,28.8,29.48,SW,230,0.0,1.0,79,0.00,,---,0.00,VWS V13.01,2013-01-17 02:00:00,
2013-01-16 21:30:00,34.6,29.4,29.48,WNW,301,0.0,0.0,81,0.00,,---,0.00,VWS V13.01,2013-01-17 02:30:00,
2013-01-16 22:00:00,34.5,29.3,29.51,West,276,0.0,0.0,81,0.00,,---,0.00,VWS V13.01,2013-01-17 03:00:00,
2013-01-16 22:30:00,34.5,29.3,29.52,WNW,296,0.0,0.0,81,0.00,,---,0.00,VWS V13.01,2013-01-17 03:30:00,
2013-01-16 23:00:00,34.6,29.4,29.52,WNW,296,0.0,0.0,81,0.00,,---,0.00,VWS V13.01,2013-01-17 04:00:00,
2013-01-16 23:30:00,34.6,29.4,29.54,ESE,123,0.0,0.0,81,0.00,,---,0.00,VWS V13.01,2013-01-17 04:30:00,